sensor_id;sensor_type;location;lat;lon;timestamp;P1;durP1;ratioP1;P2;durP2;ratioP2
62788;SDS011;66401;42.016;21.454;2023-05-23T00:00:58;7.80;;;3.90;;
62788;SDS011;66401;42.016;21.454;2023-05-23T00:03:24;4.80;;;4.00;;
62788;SDS011;66401;42.016;21.454;2023-05-23T00:05:50;4.70;;;3.90;;
62788;SDS011;66401;42.016;21.454;2023-05-23T00:08:19;4.27;;;3.80;;
62788;SDS011;66401;42.016;21.454;2023-05-23T00:10:45;4.07;;;3.53;;
62788;SDS011;66401;42.016;21.454;2023-05-23T00:13:10;5.33;;;3.90;;
62788;SDS011;66401;42.016;21.454;2023-05-23T00:15:42;4.40;;;4.00;;
62788;SDS011;66401;42.016;21.454;2023-05-23T00:18:09;6.13;;;4.07;;
62788;SDS011;66401;42.016;21.454;2023-05-23T00:20:35;5.27;;;3.77;;
62788;SDS011;66401;42.016;21.454;2023-05-23T00:23:04;3.50;;;3.20;;
62788;SDS011;66401;42.016;21.454;2023-05-23T00:25:32;3.97;;;3.57;;
62788;SDS011;66401;42.016;21.454;2023-05-23T00:28:01;3.90;;;3.40;;
62788;SDS011;66401;42.016;21.454;2023-05-23T00:30:28;3.87;;;3.30;;
62788;SDS011;66401;42.016;21.454;2023-05-23T00:32:54;5.77;;;3.50;;
62788;SDS011;66401;42.016;21.454;2023-05-23T00:35:20;6.13;;;3.70;;
62788;SDS011;66401;42.016;21.454;2023-05-23T00:37:46;5.90;;;3.53;;
62788;SDS011;66401;42.016;21.454;2023-05-23T00:40:14;4.60;;;3.53;;
62788;SDS011;66401;42.016;21.454;2023-05-23T00:42:42;5.07;;;3.50;;
62788;SDS011;66401;42.016;21.454;2023-05-23T00:45:08;6.93;;;4.30;;
62788;SDS011;66401;42.016;21.454;2023-05-23T00:47:36;5.30;;;4.57;;
62788;SDS011;66401;42.016;21.454;2023-05-23T00:50:03;4.83;;;4.10;;
62788;SDS011;66401;42.016;21.454;2023-05-23T00:52:28;7.00;;;4.60;;
62788;SDS011;66401;42.016;21.454;2023-05-23T00:54:54;5.20;;;4.67;;
62788;SDS011;66401;42.016;21.454;2023-05-23T00:57:20;5.83;;;4.60;;
62788;SDS011;66401;42.016;21.454;2023-05-23T00:59:46;4.93;;;4.40;;
62788;SDS011;66401;42.016;21.454;2023-05-23T01:02:12;5.67;;;4.60;;
62788;SDS011;66401;42.016;21.454;2023-05-23T01:04:37;7.63;;;4.67;;
62788;SDS011;66401;42.016;21.454;2023-05-23T01:07:03;5.83;;;4.67;;
62788;SDS011;66401;42.016;21.454;2023-05-23T01:09:29;8.87;;;5.13;;
62788;SDS011;66401;42.016;21.454;2023-05-23T01:17:25;8.33;;;5.60;;
62788;SDS011;66401;42.016;21.454;2023-05-23T01:19:58;5.73;;;5.03;;
62788;SDS011;66401;42.016;21.454;2023-05-23T01:25:06;6.67;;;5.43;;
62788;SDS011;66401;42.016;21.454;2023-05-23T01:27:52;8.50;;;5.27;;
62788;SDS011;66401;42.016;21.454;2023-05-23T01:30:18;10.53;;;6.00;;
62788;SDS011;66401;42.016;21.454;2023-05-23T01:32:45;7.90;;;5.60;;
62788;SDS011;66401;42.016;21.454;2023-05-23T01:35:16;8.33;;;5.73;;
62788;SDS011;66401;42.016;21.454;2023-05-23T01:37:46;8.97;;;6.00;;
62788;SDS011;66401;42.016;21.454;2023-05-23T01:40:11;14.27;;;5.60;;
62788;SDS011;66401;42.016;21.454;2023-05-23T01:42:37;9.17;;;5.27;;
62788;SDS011;66401;42.016;21.454;2023-05-23T01:45:03;8.57;;;5.57;;
62788;SDS011;66401;42.016;21.454;2023-05-23T01:47:29;9.20;;;5.80;;
62788;SDS011;66401;42.016;21.454;2023-05-23T01:49:56;6.90;;;6.20;;
62788;SDS011;66401;42.016;21.454;2023-05-23T01:52:23;5.73;;;5.13;;
62788;SDS011;66401;42.016;21.454;2023-05-23T01:54:50;7.90;;;5.83;;
62788;SDS011;66401;42.016;21.454;2023-05-23T01:57:17;6.07;;;5.47;;
62788;SDS011;66401;42.016;21.454;2023-05-23T01:59:44;7.57;;;5.63;;
62788;SDS011;66401;42.016;21.454;2023-05-23T02:02:10;9.83;;;5.83;;
62788;SDS011;66401;42.016;21.454;2023-05-23T02:04:35;6.27;;;5.37;;
62788;SDS011;66401;42.016;21.454;2023-05-23T02:07:01;7.67;;;5.60;;
62788;SDS011;66401;42.016;21.454;2023-05-23T02:09:26;7.43;;;5.70;;
62788;SDS011;66401;42.016;21.454;2023-05-23T02:11:52;7.07;;;5.47;;
62788;SDS011;66401;42.016;21.454;2023-05-23T02:14:18;7.40;;;5.83;;
62788;SDS011;66401;42.016;21.454;2023-05-23T02:16:43;8.30;;;5.73;;
62788;SDS011;66401;42.016;21.454;2023-05-23T02:19:09;8.87;;;5.60;;
62788;SDS011;66401;42.016;21.454;2023-05-23T02:21:35;8.60;;;5.73;;
62788;SDS011;66401;42.016;21.454;2023-05-23T02:24:00;6.40;;;5.47;;
62788;SDS011;66401;42.016;21.454;2023-05-23T02:26:26;5.80;;;5.10;;
62788;SDS011;66401;42.016;21.454;2023-05-23T02:28:51;9.10;;;5.90;;
62788;SDS011;66401;42.016;21.454;2023-05-23T02:31:17;13.90;;;6.13;;
62788;SDS011;66401;42.016;21.454;2023-05-23T02:33:43;9.43;;;5.53;;
62788;SDS011;66401;42.016;21.454;2023-05-23T02:36:08;10.27;;;5.17;;
62788;SDS011;66401;42.016;21.454;2023-05-23T02:38:34;8.37;;;6.10;;
62788;SDS011;66401;42.016;21.454;2023-05-23T02:40:59;6.40;;;5.13;;
62788;SDS011;66401;42.016;21.454;2023-05-23T02:43:25;10.97;;;5.50;;
62788;SDS011;66401;42.016;21.454;2023-05-23T02:45:50;7.63;;;5.30;;
62788;SDS011;66401;42.016;21.454;2023-05-23T02:48:16;8.37;;;5.67;;
62788;SDS011;66401;42.016;21.454;2023-05-23T02:50:41;8.00;;;4.17;;
62788;SDS011;66401;42.016;21.454;2023-05-23T02:53:07;4.80;;;4.40;;
62788;SDS011;66401;42.016;21.454;2023-05-23T02:55:32;9.13;;;5.23;;
62788;SDS011;66401;42.016;21.454;2023-05-23T02:57:58;9.90;;;5.50;;
62788;SDS011;66401;42.016;21.454;2023-05-23T03:00:24;7.63;;;5.97;;
62788;SDS011;66401;42.016;21.454;2023-05-23T03:02:49;6.40;;;5.67;;
62788;SDS011;66401;42.016;21.454;2023-05-23T03:05:15;7.80;;;6.23;;
62788;SDS011;66401;42.016;21.454;2023-05-23T03:07:41;9.67;;;5.80;;
62788;SDS011;66401;42.016;21.454;2023-05-23T03:10:08;10.43;;;5.80;;
62788;SDS011;66401;42.016;21.454;2023-05-23T03:12:34;6.20;;;5.60;;
62788;SDS011;66401;42.016;21.454;2023-05-23T03:14:59;6.03;;;5.40;;
62788;SDS011;66401;42.016;21.454;2023-05-23T03:17:25;8.00;;;5.90;;
62788;SDS011;66401;42.016;21.454;2023-05-23T03:19:50;8.93;;;6.37;;
62788;SDS011;66401;42.016;21.454;2023-05-23T03:22:16;7.80;;;6.13;;
62788;SDS011;66401;42.016;21.454;2023-05-23T03:24:41;9.23;;;4.97;;
62788;SDS011;66401;42.016;21.454;2023-05-23T03:27:07;8.17;;;5.37;;
62788;SDS011;66401;42.016;21.454;2023-05-23T03:29:33;14.67;;;6.40;;
62788;SDS011;66401;42.016;21.454;2023-05-23T03:31:58;8.17;;;5.37;;
62788;SDS011;66401;42.016;21.454;2023-05-23T03:34:23;11.97;;;5.17;;
62788;SDS011;66401;42.016;21.454;2023-05-23T03:36:50;5.83;;;4.90;;
62788;SDS011;66401;42.016;21.454;2023-05-23T03:39:16;7.50;;;5.30;;
62788;SDS011;66401;42.016;21.454;2023-05-23T03:41:42;10.17;;;5.40;;
62788;SDS011;66401;42.016;21.454;2023-05-23T03:44:07;7.77;;;5.80;;
62788;SDS011;66401;42.016;21.454;2023-05-23T03:46:33;8.67;;;5.63;;
62788;SDS011;66401;42.016;21.454;2023-05-23T03:48:58;7.90;;;5.50;;
62788;SDS011;66401;42.016;21.454;2023-05-23T03:51:24;9.70;;;6.10;;
62788;SDS011;66401;42.016;21.454;2023-05-23T03:53:49;12.53;;;5.47;;
62788;SDS011;66401;42.016;21.454;2023-05-23T03:56:15;6.10;;;5.47;;
62788;SDS011;66401;42.016;21.454;2023-05-23T03:58:40;8.47;;;5.90;;
62788;SDS011;66401;42.016;21.454;2023-05-23T04:01:06;10.13;;;6.40;;
62788;SDS011;66401;42.016;21.454;2023-05-23T04:03:31;7.30;;;5.97;;
62788;SDS011;66401;42.016;21.454;2023-05-23T04:05:57;12.03;;;5.47;;
62788;SDS011;66401;42.016;21.454;2023-05-23T04:08:25;9.90;;;5.67;;
62788;SDS011;66401;42.016;21.454;2023-05-23T04:10:50;7.50;;;5.73;;
62788;SDS011;66401;42.016;21.454;2023-05-23T04:13:16;10.20;;;6.07;;
62788;SDS011;66401;42.016;21.454;2023-05-23T04:15:42;8.17;;;5.40;;
62788;SDS011;66401;42.016;21.454;2023-05-23T04:18:07;6.63;;;4.93;;
62788;SDS011;66401;42.016;21.454;2023-05-23T04:20:33;7.00;;;5.50;;
62788;SDS011;66401;42.016;21.454;2023-05-23T04:22:59;8.53;;;6.03;;
62788;SDS011;66401;42.016;21.454;2023-05-23T04:25:25;6.77;;;5.30;;
62788;SDS011;66401;42.016;21.454;2023-05-23T04:27:51;7.03;;;5.60;;
62788;SDS011;66401;42.016;21.454;2023-05-23T04:30:18;7.00;;;5.03;;
62788;SDS011;66401;42.016;21.454;2023-05-23T04:32:44;9.80;;;5.83;;
62788;SDS011;66401;42.016;21.454;2023-05-23T04:35:10;7.13;;;5.20;;
62788;SDS011;66401;42.016;21.454;2023-05-23T04:37:35;11.20;;;5.60;;
62788;SDS011;66401;42.016;21.454;2023-05-23T04:40:02;5.93;;;5.33;;
62788;SDS011;66401;42.016;21.454;2023-05-23T04:42:28;9.47;;;5.20;;
62788;SDS011;66401;42.016;21.454;2023-05-23T04:44:54;7.37;;;4.80;;
62788;SDS011;66401;42.016;21.454;2023-05-23T04:47:22;4.90;;;4.50;;
62788;SDS011;66401;42.016;21.454;2023-05-23T04:49:49;10.17;;;5.37;;
62788;SDS011;66401;42.016;21.454;2023-05-23T04:52:15;6.27;;;5.47;;
62788;SDS011;66401;42.016;21.454;2023-05-23T04:54:43;8.50;;;4.97;;
62788;SDS011;66401;42.016;21.454;2023-05-23T04:57:10;8.20;;;5.33;;
62788;SDS011;66401;42.016;21.454;2023-05-23T04:59:37;8.53;;;5.60;;
62788;SDS011;66401;42.016;21.454;2023-05-23T05:02:03;8.87;;;5.43;;
62788;SDS011;66401;42.016;21.454;2023-05-23T05:04:30;10.30;;;6.00;;
62788;SDS011;66401;42.016;21.454;2023-05-23T05:06:55;8.60;;;5.80;;
62788;SDS011;66401;42.016;21.454;2023-05-23T05:09:21;8.73;;;6.13;;
62788;SDS011;66401;42.016;21.454;2023-05-23T05:11:47;7.33;;;5.40;;
62788;SDS011;66401;42.016;21.454;2023-05-23T05:14:12;7.97;;;5.57;;
62788;SDS011;66401;42.016;21.454;2023-05-23T05:16:37;10.03;;;6.03;;
62788;SDS011;66401;42.016;21.454;2023-05-23T05:19:03;9.40;;;5.30;;
62788;SDS011;66401;42.016;21.454;2023-05-23T05:21:29;10.37;;;5.30;;
62788;SDS011;66401;42.016;21.454;2023-05-23T05:23:55;6.70;;;4.77;;
62788;SDS011;66401;42.016;21.454;2023-05-23T05:26:21;9.50;;;5.17;;
62788;SDS011;66401;42.016;21.454;2023-05-23T05:28:47;8.07;;;4.57;;
62788;SDS011;66401;42.016;21.454;2023-05-23T05:31:13;8.80;;;4.90;;
62788;SDS011;66401;42.016;21.454;2023-05-23T05:33:39;6.13;;;5.17;;
62788;SDS011;66401;42.016;21.454;2023-05-23T05:36:06;6.47;;;5.07;;
62788;SDS011;66401;42.016;21.454;2023-05-23T05:38:31;5.47;;;4.80;;
62788;SDS011;66401;42.016;21.454;2023-05-23T05:40:57;10.43;;;4.93;;
62788;SDS011;66401;42.016;21.454;2023-05-23T05:43:24;8.60;;;5.53;;
62788;SDS011;66401;42.016;21.454;2023-05-23T05:45:50;7.07;;;4.80;;
62788;SDS011;66401;42.016;21.454;2023-05-23T05:48:15;9.37;;;5.50;;
62788;SDS011;66401;42.016;21.454;2023-05-23T05:50:41;9.40;;;4.97;;
62788;SDS011;66401;42.016;21.454;2023-05-23T05:53:09;6.53;;;4.50;;
62788;SDS011;66401;42.016;21.454;2023-05-23T05:55:35;7.63;;;4.53;;
62788;SDS011;66401;42.016;21.454;2023-05-23T05:58:02;5.53;;;4.70;;
62788;SDS011;66401;42.016;21.454;2023-05-23T06:00:27;7.57;;;4.60;;
62788;SDS011;66401;42.016;21.454;2023-05-23T06:02:53;7.03;;;4.50;;
62788;SDS011;66401;42.016;21.454;2023-05-23T06:05:21;8.57;;;4.73;;
62788;SDS011;66401;42.016;21.454;2023-05-23T06:07:48;7.93;;;4.27;;
62788;SDS011;66401;42.016;21.454;2023-05-23T06:10:14;6.57;;;4.57;;
62788;SDS011;66401;42.016;21.454;2023-05-23T06:12:41;7.53;;;4.50;;
62788;SDS011;66401;42.016;21.454;2023-05-23T06:15:07;6.57;;;4.20;;
62788;SDS011;66401;42.016;21.454;2023-05-23T06:17:33;7.87;;;5.03;;
62788;SDS011;66401;42.016;21.454;2023-05-23T06:19:59;8.37;;;5.03;;
62788;SDS011;66401;42.016;21.454;2023-05-23T06:22:24;6.33;;;4.67;;
62788;SDS011;66401;42.016;21.454;2023-05-23T06:24:50;8.43;;;5.17;;
62788;SDS011;66401;42.016;21.454;2023-05-23T06:27:15;10.30;;;5.13;;
62788;SDS011;66401;42.016;21.454;2023-05-23T06:29:41;7.27;;;5.10;;
62788;SDS011;66401;42.016;21.454;2023-05-23T06:32:06;6.70;;;4.80;;
62788;SDS011;66401;42.016;21.454;2023-05-23T06:34:32;8.40;;;4.60;;
62788;SDS011;66401;42.016;21.454;2023-05-23T06:37:03;8.37;;;4.70;;
62788;SDS011;66401;42.016;21.454;2023-05-23T06:39:28;5.33;;;4.90;;
62788;SDS011;66401;42.016;21.454;2023-05-23T06:41:54;7.00;;;5.03;;
62788;SDS011;66401;42.016;21.454;2023-05-23T06:44:19;6.80;;;4.80;;
62788;SDS011;66401;42.016;21.454;2023-05-23T06:46:45;9.50;;;4.83;;
62788;SDS011;66401;42.016;21.454;2023-05-23T06:49:11;6.60;;;4.53;;
62788;SDS011;66401;42.016;21.454;2023-05-23T06:51:37;6.00;;;4.87;;
62788;SDS011;66401;42.016;21.454;2023-05-23T06:54:02;6.23;;;5.00;;
62788;SDS011;66401;42.016;21.454;2023-05-23T06:56:28;5.97;;;4.73;;
62788;SDS011;66401;42.016;21.454;2023-05-23T06:58:54;5.77;;;4.37;;
62788;SDS011;66401;42.016;21.454;2023-05-23T07:01:20;12.57;;;5.07;;
62788;SDS011;66401;42.016;21.454;2023-05-23T07:03:46;8.47;;;5.00;;
62788;SDS011;66401;42.016;21.454;2023-05-23T07:06:11;5.57;;;4.60;;
62788;SDS011;66401;42.016;21.454;2023-05-23T07:08:37;12.13;;;4.87;;
62788;SDS011;66401;42.016;21.454;2023-05-23T07:11:03;8.43;;;4.83;;
62788;SDS011;66401;42.016;21.454;2023-05-23T07:13:30;6.00;;;5.07;;
62788;SDS011;66401;42.016;21.454;2023-05-23T07:15:56;7.77;;;4.40;;
62788;SDS011;66401;42.016;21.454;2023-05-23T07:18:22;4.97;;;4.23;;
62788;SDS011;66401;42.016;21.454;2023-05-23T07:20:48;9.27;;;4.60;;
62788;SDS011;66401;42.016;21.454;2023-05-23T07:23:14;12.73;;;5.50;;
62788;SDS011;66401;42.016;21.454;2023-05-23T07:25:39;6.80;;;4.40;;
62788;SDS011;66401;42.016;21.454;2023-05-23T07:28:06;5.20;;;4.70;;
62788;SDS011;66401;42.016;21.454;2023-05-23T07:30:32;4.97;;;4.47;;
62788;SDS011;66401;42.016;21.454;2023-05-23T07:32:58;5.87;;;4.73;;
62788;SDS011;66401;42.016;21.454;2023-05-23T07:35:23;10.07;;;4.93;;
62788;SDS011;66401;42.016;21.454;2023-05-23T07:37:52;5.10;;;4.03;;
62788;SDS011;66401;42.016;21.454;2023-05-23T07:40:19;5.63;;;4.17;;
62788;SDS011;66401;42.016;21.454;2023-05-23T07:42:45;5.63;;;4.13;;
62788;SDS011;66401;42.016;21.454;2023-05-23T07:45:11;5.67;;;4.50;;
62788;SDS011;66401;42.016;21.454;2023-05-23T07:47:37;8.30;;;5.53;;
62788;SDS011;66401;42.016;21.454;2023-05-23T07:50:02;6.77;;;4.43;;
62788;SDS011;66401;42.016;21.454;2023-05-23T07:52:28;9.20;;;5.30;;
62788;SDS011;66401;42.016;21.454;2023-05-23T07:54:56;7.60;;;5.30;;
62788;SDS011;66401;42.016;21.454;2023-05-23T07:57:22;19.40;;;8.27;;
62788;SDS011;66401;42.016;21.454;2023-05-23T07:59:48;16.53;;;9.00;;
62788;SDS011;66401;42.016;21.454;2023-05-23T08:02:15;18.37;;;8.07;;
62788;SDS011;66401;42.016;21.454;2023-05-23T08:04:41;19.27;;;8.50;;
62788;SDS011;66401;42.016;21.454;2023-05-23T08:07:07;15.87;;;7.20;;
62788;SDS011;66401;42.016;21.454;2023-05-23T08:09:34;11.37;;;6.63;;
62788;SDS011;66401;42.016;21.454;2023-05-23T08:11:59;6.37;;;4.60;;
62788;SDS011;66401;42.016;21.454;2023-05-23T08:14:25;5.90;;;4.10;;
62788;SDS011;66401;42.016;21.454;2023-05-23T08:16:50;11.03;;;5.63;;
62788;SDS011;66401;42.016;21.454;2023-05-23T08:19:16;7.33;;;5.13;;
62788;SDS011;66401;42.016;21.454;2023-05-23T08:21:41;8.70;;;5.00;;
62788;SDS011;66401;42.016;21.454;2023-05-23T08:24:07;11.57;;;5.93;;
62788;SDS011;66401;42.016;21.454;2023-05-23T08:26:33;10.13;;;5.63;;
62788;SDS011;66401;42.016;21.454;2023-05-23T08:28:59;9.53;;;5.90;;
62788;SDS011;66401;42.016;21.454;2023-05-23T08:31:26;12.17;;;6.20;;
62788;SDS011;66401;42.016;21.454;2023-05-23T08:33:55;10.07;;;5.00;;
62788;SDS011;66401;42.016;21.454;2023-05-23T08:36:21;7.33;;;4.40;;
62788;SDS011;66401;42.016;21.454;2023-05-23T08:38:46;9.13;;;5.47;;
62788;SDS011;66401;42.016;21.454;2023-05-23T08:41:23;8.13;;;5.07;;
62788;SDS011;66401;42.016;21.454;2023-05-23T08:43:49;8.27;;;4.70;;
62788;SDS011;66401;42.016;21.454;2023-05-23T08:46:15;9.00;;;5.03;;
62788;SDS011;66401;42.016;21.454;2023-05-23T08:48:45;8.40;;;4.50;;
62788;SDS011;66401;42.016;21.454;2023-05-23T08:51:17;6.93;;;4.70;;
62788;SDS011;66401;42.016;21.454;2023-05-23T08:53:44;9.43;;;5.40;;
62788;SDS011;66401;42.016;21.454;2023-05-23T08:56:12;14.47;;;6.33;;
62788;SDS011;66401;42.016;21.454;2023-05-23T08:58:38;9.17;;;5.47;;
62788;SDS011;66401;42.016;21.454;2023-05-23T09:01:09;5.80;;;5.20;;
62788;SDS011;66401;42.016;21.454;2023-05-23T09:03:35;10.30;;;6.57;;
62788;SDS011;66401;42.016;21.454;2023-05-23T09:06:07;9.13;;;6.03;;
62788;SDS011;66401;42.016;21.454;2023-05-23T09:08:34;8.03;;;5.60;;
62788;SDS011;66401;42.016;21.454;2023-05-23T09:11:00;10.10;;;5.37;;
62788;SDS011;66401;42.016;21.454;2023-05-23T09:13:28;7.37;;;5.23;;
62788;SDS011;66401;42.016;21.454;2023-05-23T09:18:45;11.27;;;5.20;;
62788;SDS011;66401;42.016;21.454;2023-05-23T09:21:10;8.50;;;5.43;;
62788;SDS011;66401;42.016;21.454;2023-05-23T09:23:37;10.60;;;5.20;;
62788;SDS011;66401;42.016;21.454;2023-05-23T09:26:05;9.90;;;4.80;;
62788;SDS011;66401;42.016;21.454;2023-05-23T09:28:32;7.03;;;4.00;;
62788;SDS011;66401;42.016;21.454;2023-05-23T09:31:00;6.63;;;4.00;;
62788;SDS011;66401;42.016;21.454;2023-05-23T09:36:07;9.00;;;4.93;;
62788;SDS011;66401;42.016;21.454;2023-05-23T09:38:39;7.23;;;4.20;;
62788;SDS011;66401;42.016;21.454;2023-05-23T09:41:06;7.63;;;5.30;;
62788;SDS011;66401;42.016;21.454;2023-05-23T09:43:31;7.20;;;4.90;;
62788;SDS011;66401;42.016;21.454;2023-05-23T09:46:15;7.33;;;5.00;;
62788;SDS011;66401;42.016;21.454;2023-05-23T09:48:45;8.47;;;5.33;;
62788;SDS011;66401;42.016;21.454;2023-05-23T09:51:17;9.23;;;5.37;;
62788;SDS011;66401;42.016;21.454;2023-05-23T09:53:45;6.43;;;4.93;;
62788;SDS011;66401;42.016;21.454;2023-05-23T09:56:11;6.90;;;5.27;;
62788;SDS011;66401;42.016;21.454;2023-05-23T09:58:37;12.70;;;6.17;;
62788;SDS011;66401;42.016;21.454;2023-05-23T10:01:03;12.90;;;6.43;;
62788;SDS011;66401;42.016;21.454;2023-05-23T10:03:38;13.37;;;6.63;;
62788;SDS011;66401;42.016;21.454;2023-05-23T10:06:12;16.63;;;8.37;;
62788;SDS011;66401;42.016;21.454;2023-05-23T10:08:53;15.90;;;7.57;;
62788;SDS011;66401;42.016;21.454;2023-05-23T10:14:01;14.00;;;7.17;;
62788;SDS011;66401;42.016;21.454;2023-05-23T10:16:49;10.70;;;6.73;;
62788;SDS011;66401;42.016;21.454;2023-05-23T10:19:24;14.47;;;6.33;;
62788;SDS011;66401;42.016;21.454;2023-05-23T10:21:54;10.57;;;5.50;;
62788;SDS011;66401;42.016;21.454;2023-05-23T10:24:23;8.73;;;4.57;;
62788;SDS011;66401;42.016;21.454;2023-05-23T10:26:50;7.33;;;4.90;;
62788;SDS011;66401;42.016;21.454;2023-05-23T10:29:17;7.17;;;4.43;;
62788;SDS011;66401;42.016;21.454;2023-05-23T10:31:42;6.53;;;4.47;;
62788;SDS011;66401;42.016;21.454;2023-05-23T10:37:02;5.73;;;4.43;;
62788;SDS011;66401;42.016;21.454;2023-05-23T10:42:10;6.10;;;4.30;;
62788;SDS011;66401;42.016;21.454;2023-05-23T10:44:40;6.57;;;4.50;;
62788;SDS011;66401;42.016;21.454;2023-05-23T10:47:05;8.47;;;4.70;;
62788;SDS011;66401;42.016;21.454;2023-05-23T10:49:44;10.67;;;4.70;;
62788;SDS011;66401;42.016;21.454;2023-05-23T10:52:22;7.60;;;4.30;;
62788;SDS011;66401;42.016;21.454;2023-05-23T10:54:52;7.17;;;3.97;;
62788;SDS011;66401;42.016;21.454;2023-05-23T10:57:19;4.40;;;4.00;;
62788;SDS011;66401;42.016;21.454;2023-05-23T10:59:46;7.23;;;4.10;;
62788;SDS011;66401;42.016;21.454;2023-05-23T11:02:15;9.57;;;4.70;;
62788;SDS011;66401;42.016;21.454;2023-05-23T11:04:43;6.83;;;4.37;;
62788;SDS011;66401;42.016;21.454;2023-05-23T11:07:28;5.17;;;4.03;;
62788;SDS011;66401;42.016;21.454;2023-05-23T11:12:47;8.80;;;4.10;;
62788;SDS011;66401;42.016;21.454;2023-05-23T11:18:02;4.97;;;3.60;;
62788;SDS011;66401;42.016;21.454;2023-05-23T11:20:30;4.03;;;3.60;;
62788;SDS011;66401;42.016;21.454;2023-05-23T11:23:00;5.97;;;3.33;;
62788;SDS011;66401;42.016;21.454;2023-05-23T11:28:09;5.97;;;3.70;;
62788;SDS011;66401;42.016;21.454;2023-05-23T11:30:35;3.40;;;3.10;;
62788;SDS011;66401;42.016;21.454;2023-05-23T11:33:05;5.83;;;3.33;;
62788;SDS011;66401;42.016;21.454;2023-05-23T11:35:38;6.63;;;3.10;;
62788;SDS011;66401;42.016;21.454;2023-05-23T11:38:08;3.07;;;2.80;;
62788;SDS011;66401;42.016;21.454;2023-05-23T11:40:35;3.20;;;2.90;;
62788;SDS011;66401;42.016;21.454;2023-05-23T11:43:02;4.50;;;3.10;;
62788;SDS011;66401;42.016;21.454;2023-05-23T11:45:30;4.43;;;3.37;;
62788;SDS011;66401;42.016;21.454;2023-05-23T11:47:56;5.20;;;3.47;;
62788;SDS011;66401;42.016;21.454;2023-05-23T11:50:22;9.27;;;3.80;;
62788;SDS011;66401;42.016;21.454;2023-05-23T11:52:50;3.87;;;3.47;;
62788;SDS011;66401;42.016;21.454;2023-05-23T11:55:17;5.40;;;3.60;;
62788;SDS011;66401;42.016;21.454;2023-05-23T11:57:43;4.87;;;3.57;;
62788;SDS011;66401;42.016;21.454;2023-05-23T12:00:10;4.50;;;4.10;;
62788;SDS011;66401;42.016;21.454;2023-05-23T12:02:42;5.20;;;3.27;;
62788;SDS011;66401;42.016;21.454;2023-05-23T12:05:08;3.47;;;3.17;;
62788;SDS011;66401;42.016;21.454;2023-05-23T12:07:38;3.67;;;2.93;;
62788;SDS011;66401;42.016;21.454;2023-05-23T12:10:09;3.83;;;3.40;;
62788;SDS011;66401;42.016;21.454;2023-05-23T12:12:35;4.60;;;3.53;;
62788;SDS011;66401;42.016;21.454;2023-05-23T12:15:01;5.10;;;4.03;;
62788;SDS011;66401;42.016;21.454;2023-05-23T12:17:27;5.43;;;3.50;;
62788;SDS011;66401;42.016;21.454;2023-05-23T12:19:52;4.20;;;3.80;;
62788;SDS011;66401;42.016;21.454;2023-05-23T12:22:22;3.40;;;3.10;;
62788;SDS011;66401;42.016;21.454;2023-05-23T12:24:54;3.93;;;3.50;;
62788;SDS011;66401;42.016;21.454;2023-05-23T12:27:26;4.57;;;3.10;;
62788;SDS011;66401;42.016;21.454;2023-05-23T12:30:03;3.50;;;3.20;;
62788;SDS011;66401;42.016;21.454;2023-05-23T12:32:30;7.47;;;3.67;;
62788;SDS011;66401;42.016;21.454;2023-05-23T12:34:55;7.73;;;3.70;;
62788;SDS011;66401;42.016;21.454;2023-05-23T12:37:21;5.83;;;3.50;;
62788;SDS011;66401;42.016;21.454;2023-05-23T12:39:48;4.27;;;3.70;;
62788;SDS011;66401;42.016;21.454;2023-05-23T12:42:14;4.07;;;3.37;;
62788;SDS011;66401;42.016;21.454;2023-05-23T12:44:40;5.53;;;3.60;;
62788;SDS011;66401;42.016;21.454;2023-05-23T12:47:06;3.90;;;3.50;;
62788;SDS011;66401;42.016;21.454;2023-05-23T12:49:31;7.03;;;3.50;;
62788;SDS011;66401;42.016;21.454;2023-05-23T12:51:57;5.13;;;3.90;;
62788;SDS011;66401;42.016;21.454;2023-05-23T12:54:22;6.90;;;4.13;;
62788;SDS011;66401;42.016;21.454;2023-05-23T12:56:48;4.50;;;4.20;;
62788;SDS011;66401;42.016;21.454;2023-05-23T12:59:13;5.17;;;4.47;;
62788;SDS011;66401;42.016;21.454;2023-05-23T13:01:38;4.33;;;3.87;;
62788;SDS011;66401;42.016;21.454;2023-05-23T13:04:04;4.20;;;3.63;;
62788;SDS011;66401;42.016;21.454;2023-05-23T13:06:29;5.30;;;3.80;;
62788;SDS011;66401;42.016;21.454;2023-05-23T13:08:55;5.30;;;3.63;;
62788;SDS011;66401;42.016;21.454;2023-05-23T13:11:21;5.10;;;3.50;;
62788;SDS011;66401;42.016;21.454;2023-05-23T13:13:47;4.80;;;3.17;;
62788;SDS011;66401;42.016;21.454;2023-05-23T13:16:13;3.50;;;3.20;;
62788;SDS011;66401;42.016;21.454;2023-05-23T13:18:39;4.67;;;3.20;;
62788;SDS011;66401;42.016;21.454;2023-05-23T13:21:05;4.20;;;3.50;;
62788;SDS011;66401;42.016;21.454;2023-05-23T13:23:31;6.03;;;3.50;;
62788;SDS011;66401;42.016;21.454;2023-05-23T13:25:56;6.20;;;3.70;;
62788;SDS011;66401;42.016;21.454;2023-05-23T13:28:22;5.90;;;3.93;;
62788;SDS011;66401;42.016;21.454;2023-05-23T13:30:47;6.57;;;3.63;;
62788;SDS011;66401;42.016;21.454;2023-05-23T13:33:13;3.37;;;3.10;;
62788;SDS011;66401;42.016;21.454;2023-05-23T13:35:38;5.93;;;3.67;;
62788;SDS011;66401;42.016;21.454;2023-05-23T13:38:04;6.70;;;3.50;;
62788;SDS011;66401;42.016;21.454;2023-05-23T13:40:29;4.40;;;3.00;;
62788;SDS011;66401;42.016;21.454;2023-05-23T13:42:55;4.13;;;3.57;;
62788;SDS011;66401;42.016;21.454;2023-05-23T13:45:21;6.83;;;4.00;;
62788;SDS011;66401;42.016;21.454;2023-05-23T13:47:47;5.60;;;3.43;;
62788;SDS011;66401;42.016;21.454;2023-05-23T13:50:12;4.10;;;3.20;;
62788;SDS011;66401;42.016;21.454;2023-05-23T13:52:38;4.03;;;3.47;;
62788;SDS011;66401;42.016;21.454;2023-05-23T13:55:04;3.33;;;2.90;;
62788;SDS011;66401;42.016;21.454;2023-05-23T13:57:30;5.33;;;3.17;;
62788;SDS011;66401;42.016;21.454;2023-05-23T13:59:56;4.80;;;2.83;;
62788;SDS011;66401;42.016;21.454;2023-05-23T14:02:21;5.60;;;3.80;;
62788;SDS011;66401;42.016;21.454;2023-05-23T14:04:47;5.67;;;2.80;;
62788;SDS011;66401;42.016;21.454;2023-05-23T14:07:14;3.57;;;3.27;;
62788;SDS011;66401;42.016;21.454;2023-05-23T14:09:39;3.60;;;3.20;;
62788;SDS011;66401;42.016;21.454;2023-05-23T14:12:05;4.63;;;3.50;;
62788;SDS011;66401;42.016;21.454;2023-05-23T14:14:31;3.83;;;3.07;;
62788;SDS011;66401;42.016;21.454;2023-05-23T14:16:56;5.10;;;3.40;;
62788;SDS011;66401;42.016;21.454;2023-05-23T14:19:22;5.67;;;4.30;;
62788;SDS011;66401;42.016;21.454;2023-05-23T14:21:48;11.77;;;7.23;;
62788;SDS011;66401;42.016;21.454;2023-05-23T14:24:13;9.47;;;7.40;;
62788;SDS011;66401;42.016;21.454;2023-05-23T14:26:39;4.63;;;3.90;;
62788;SDS011;66401;42.016;21.454;2023-05-23T14:29:04;3.13;;;2.93;;
62788;SDS011;66401;42.016;21.454;2023-05-23T14:31:30;3.50;;;2.90;;
62788;SDS011;66401;42.016;21.454;2023-05-23T14:33:56;5.67;;;2.70;;
62788;SDS011;66401;42.016;21.454;2023-05-23T14:36:21;2.57;;;2.20;;
62788;SDS011;66401;42.016;21.454;2023-05-23T14:38:46;2.87;;;2.60;;
62788;SDS011;66401;42.016;21.454;2023-05-23T14:41:13;2.40;;;2.20;;
62788;SDS011;66401;42.016;21.454;2023-05-23T14:43:39;4.27;;;2.77;;
62788;SDS011;66401;42.016;21.454;2023-05-23T14:46:04;3.43;;;2.70;;
62788;SDS011;66401;42.016;21.454;2023-05-23T14:48:30;5.17;;;2.70;;
62788;SDS011;66401;42.016;21.454;2023-05-23T14:50:56;3.87;;;2.47;;
62788;SDS011;66401;42.016;21.454;2023-05-23T14:53:25;4.03;;;2.70;;
62788;SDS011;66401;42.016;21.454;2023-05-23T14:55:54;3.47;;;2.60;;
62788;SDS011;66401;42.016;21.454;2023-05-23T14:58:22;2.77;;;2.40;;
62788;SDS011;66401;42.016;21.454;2023-05-23T15:00:49;2.70;;;2.50;;